createdAt,value
2023-02-12T00:00:16.570Z,7.40
2023-02-12T00:02:43.953Z,7.40
2023-02-12T00:05:12.357Z,7.40
2023-02-12T00:07:39.833Z,7.30
2023-02-12T00:10:07.636Z,7.30
2023-02-12T00:12:34.875Z,7.40
2023-02-12T00:15:02.181Z,7.40
2023-02-12T00:17:29.671Z,7.50
2023-02-12T00:19:56.830Z,7.50
2023-02-12T00:22:24.551Z,7.50
2023-02-12T00:24:52.126Z,7.50
2023-02-12T00:27:19.357Z,7.50
2023-02-12T00:29:46.497Z,7.50
2023-02-12T00:32:14.564Z,7.60
2023-02-12T00:34:41.665Z,7.60
2023-02-12T00:37:08.781Z,7.60
2023-02-12T00:39:38.257Z,7.60
2023-02-12T00:42:05.560Z,7.50
2023-02-12T00:44:32.895Z,7.50
2023-02-12T00:47:02.579Z,7.50
2023-02-12T00:49:35.571Z,7.50
2023-02-12T00:52:07.524Z,7.50
2023-02-12T00:54:35.073Z,7.50
2023-02-12T00:57:02.510Z,7.50
2023-02-12T00:59:30.041Z,7.50
2023-02-12T01:01:57.418Z,7.60
2023-02-12T01:04:25.146Z,7.60
2023-02-12T01:06:52.524Z,7.60
2023-02-12T01:09:19.764Z,7.60
2023-02-12T01:11:49.765Z,7.60
2023-02-12T01:14:17.077Z,7.60
2023-02-12T01:16:44.256Z,7.50
2023-02-12T01:19:11.882Z,7.50
2023-02-12T01:21:39.559Z,7.50
2023-02-12T01:24:06.844Z,7.50
2023-02-12T01:26:34.010Z,7.50
2023-02-12T01:29:02.320Z,7.50
2023-02-12T01:31:31.941Z,7.50
2023-02-12T01:33:59.761Z,7.60
2023-02-12T01:36:27.518Z,7.60
2023-02-12T01:38:54.780Z,7.60
2023-02-12T01:41:27.795Z,7.60
2023-02-12T01:44:08.426Z,7.60
2023-02-12T01:46:37.769Z,7.50
2023-02-12T01:49:10.115Z,7.60
2023-02-12T01:51:37.356Z,7.50
2023-02-12T01:54:08.925Z,7.40
2023-02-12T01:56:39.453Z,7.40
2023-02-12T01:59:06.920Z,7.40
2023-02-12T02:01:34.682Z,7.40
2023-02-12T02:04:07.605Z,7.40
2023-02-12T02:07:00.088Z,7.50
2023-02-12T02:09:29.070Z,7.50
2023-02-12T02:12:15.772Z,7.50
2023-02-12T02:14:48.564Z,7.50
2023-02-12T02:17:38.599Z,7.50
2023-02-12T02:20:25.041Z,7.50
2023-02-12T02:23:25.697Z,7.50
2023-02-12T02:26:14.738Z,7.50
2023-02-12T02:29:05.485Z,7.50
2023-02-12T02:31:43.657Z,7.50
2023-02-12T02:34:22.006Z,7.50
2023-02-12T02:37:20.111Z,7.50
2023-02-12T02:40:03.663Z,7.50
2023-02-12T02:42:36.918Z,7.30
2023-02-12T02:45:13.418Z,7.20
2023-02-12T02:47:45.789Z,7.00
2023-02-12T02:50:19.860Z,7.00
2023-02-12T02:53:02.870Z,6.90
2023-02-12T02:55:36.271Z,6.80
2023-02-12T02:58:06.643Z,6.90
2023-02-12T03:00:39.214Z,7.00
2023-02-12T03:03:28.804Z,7.00
2023-02-12T03:05:59.533Z,7.00
2023-02-12T03:08:29.353Z,6.90
2023-02-12T03:11:00.037Z,6.90
2023-02-12T03:13:28.633Z,7.00
2023-02-12T03:16:19.275Z,7.10
2023-02-12T03:18:53.511Z,7.10
2023-02-12T03:21:30.453Z,7.10
2023-02-12T03:24:11.303Z,7.10
2023-02-12T03:26:47.053Z,7.10
2023-02-12T03:29:16.685Z,7.10
2023-02-12T03:31:46.695Z,7.10
2023-02-12T03:34:18.635Z,7.10
2023-02-12T03:36:54.446Z,7.00
2023-02-12T03:39:59.885Z,7.10
2023-02-12T03:42:32.582Z,7.20
2023-02-12T03:45:20.989Z,7.20
2023-02-12T03:48:04.745Z,7.10
2023-02-12T03:50:46.030Z,7.00
2023-02-12T03:53:13.144Z,7.10
2023-02-12T03:55:41.958Z,7.20
2023-02-12T03:58:10.158Z,7.20
2023-02-12T04:00:38.341Z,7.30
2023-02-12T04:03:05.986Z,7.30
2023-02-12T04:05:33.257Z,7.30
2023-02-12T04:08:00.405Z,7.30
2023-02-12T04:10:36.757Z,7.30
2023-02-12T04:13:19.268Z,7.40
2023-02-12T04:16:08.654Z,7.40
2023-02-12T04:18:46.850Z,7.40
2023-02-12T04:21:24.922Z,7.40
2023-02-12T04:24:13.399Z,7.40
2023-02-12T04:26:51.453Z,7.40
2023-02-12T04:29:42.775Z,7.40
2023-02-12T04:32:16.318Z,7.40
2023-02-12T04:34:53.640Z,7.50
2023-02-12T04:37:41.804Z,7.50
2023-02-12T04:40:13.763Z,7.50
2023-02-12T04:42:44.792Z,7.40
2023-02-12T04:45:16.548Z,7.40
2023-02-12T04:47:44.720Z,7.40
2023-02-12T04:50:12.282Z,7.50
2023-02-12T04:52:39.372Z,7.40
2023-02-12T04:55:08.498Z,7.40
2023-02-12T04:57:35.534Z,7.40
2023-02-12T05:00:02.700Z,7.40
2023-02-12T05:02:29.724Z,7.50
2023-02-12T05:04:56.816Z,7.50
2023-02-12T05:07:23.982Z,7.50
2023-02-12T05:09:51.133Z,7.40
2023-02-12T05:12:18.242Z,7.30
2023-02-12T05:14:45.324Z,7.30
2023-02-12T05:17:15.518Z,7.30
2023-02-12T05:19:42.648Z,7.20
2023-02-12T05:22:10.181Z,7.20
2023-02-12T05:24:38.368Z,7.20
2023-02-12T05:27:05.552Z,7.20
2023-02-12T05:29:32.591Z,7.20
2023-02-12T05:31:59.963Z,7.20
2023-02-12T05:34:27.248Z,7.20
2023-02-12T05:36:54.485Z,7.30
2023-02-12T05:39:21.596Z,7.30
2023-02-12T05:41:48.708Z,7.30
2023-02-12T05:44:15.797Z,7.30
2023-02-12T05:46:43.222Z,7.30
2023-02-12T05:49:10.627Z,7.20
2023-02-12T05:51:37.939Z,7.20
2023-02-12T05:54:06.677Z,7.10
2023-02-12T05:56:37.662Z,7.10
2023-02-12T05:59:07.704Z,7.00
2023-02-12T06:01:41.637Z,6.90
2023-02-12T06:04:12.657Z,6.90
2023-02-12T06:06:42.389Z,6.90
2023-02-12T06:09:11.555Z,6.80
2023-02-12T06:11:38.720Z,6.80
2023-02-12T06:14:06.583Z,6.90
2023-02-12T06:16:35.659Z,7.00
2023-02-12T06:19:04.006Z,7.10
2023-02-12T06:21:31.368Z,7.00
2023-02-12T06:23:58.379Z,7.10
2023-02-12T06:26:25.619Z,7.10
2023-02-12T06:28:53.021Z,7.00
2023-02-12T06:31:28.458Z,7.00
2023-02-12T06:33:56.842Z,6.90
2023-02-12T06:36:24.240Z,7.00
2023-02-12T06:38:51.546Z,7.00
2023-02-12T06:41:19.062Z,7.00
2023-02-12T06:43:48.476Z,7.00
2023-02-12T06:46:16.140Z,6.90
2023-02-12T06:48:43.300Z,6.90
2023-02-12T06:51:11.609Z,6.80
2023-02-12T06:53:38.875Z,6.80
2023-02-12T06:56:07.334Z,6.90
2023-02-12T06:58:34.485Z,6.90
2023-02-12T07:01:13.931Z,7.00
2023-02-12T07:03:42.765Z,7.00
2023-02-12T07:06:10.174Z,7.00
2023-02-12T07:08:37.683Z,7.00
2023-02-12T07:11:05.540Z,7.00
2023-02-12T07:13:35.147Z,7.00
2023-02-12T07:16:09.802Z,7.00
2023-02-12T07:18:38.517Z,7.10
2023-02-12T07:21:06.381Z,7.30
2023-02-12T07:23:34.533Z,7.30
2023-02-12T07:26:03.671Z,7.40
2023-02-12T07:28:33.882Z,7.30
2023-02-12T07:31:13.398Z,7.30
2023-02-12T07:33:40.676Z,7.40
2023-02-12T07:36:10.018Z,7.30
2023-02-12T07:38:42.333Z,7.30
2023-02-12T07:41:13.364Z,7.40
2023-02-12T07:43:49.209Z,7.50
2023-02-12T07:46:25.593Z,7.60
2023-02-12T07:48:55.468Z,7.60
2023-02-12T07:51:23.907Z,7.60
2023-02-12T07:53:51.250Z,7.60
2023-02-12T07:56:20.959Z,7.50
2023-02-12T07:58:50.259Z,7.50
2023-02-12T08:01:18.556Z,7.50
2023-02-12T08:03:46.021Z,7.60
2023-02-12T08:06:21.287Z,7.60
2023-02-12T08:08:52.536Z,7.60
2023-02-12T08:11:19.903Z,7.70
2023-02-12T08:13:47.326Z,7.80
2023-02-12T08:16:17.390Z,7.80
2023-02-12T08:18:44.860Z,7.90
2023-02-12T08:21:13.846Z,7.90
2023-02-12T08:23:41.979Z,7.90
2023-02-12T08:26:15.621Z,8.00
2023-02-12T08:28:44.873Z,8.00
2023-02-12T08:31:17.089Z,7.90
2023-02-12T08:33:45.554Z,7.80
2023-02-12T08:36:15.775Z,7.80
2023-02-12T08:38:45.064Z,7.70
2023-02-12T08:43:49.488Z,7.80
2023-02-12T08:46:22.784Z,7.70
2023-02-12T08:48:52.002Z,7.80
2023-02-12T08:51:20.461Z,7.80
2023-02-12T08:53:48.667Z,8.00
2023-02-12T08:56:22.644Z,8.10
2023-02-12T08:58:51.129Z,8.20
2023-02-12T09:01:20.931Z,8.30
2023-02-12T09:03:48.578Z,8.40
2023-02-12T09:06:20.282Z,8.40
2023-02-12T09:08:50.799Z,8.30
2023-02-12T09:11:26.792Z,8.30
2023-02-12T09:13:59.769Z,8.40
2023-02-12T09:16:33.244Z,8.50
2023-02-12T09:19:00.891Z,8.50
2023-02-12T09:21:31.292Z,8.50
2023-02-12T09:24:01.792Z,8.60
2023-02-12T09:26:33.781Z,8.50
2023-02-12T09:29:02.229Z,8.60
2023-02-12T09:31:30.504Z,8.70
2023-02-12T09:34:15.961Z,8.90
2023-02-12T09:36:43.538Z,8.90
2023-02-12T09:39:14.842Z,9.00
2023-02-12T09:42:18.571Z,9.00
2023-02-12T09:44:58.771Z,9.10
2023-02-12T09:48:05.956Z,9.20
2023-02-12T09:50:40.519Z,9.20
2023-02-12T09:53:11.677Z,9.20
2023-02-12T09:55:44.435Z,9.40
2023-02-12T09:59:02.186Z,9.50
2023-02-12T10:01:34.068Z,9.60
2023-02-12T10:04:04.431Z,9.60
2023-02-12T10:06:42.010Z,9.70
2023-02-12T10:09:34.615Z,9.90
2023-02-12T10:12:39.592Z,10.10
2023-02-12T10:15:24.692Z,10.20
2023-02-12T10:18:10.517Z,10.40
2023-02-12T10:24:01.721Z,11.20
2023-02-12T10:29:24.723Z,11.20
2023-02-12T10:35:07.328Z,10.90
2023-02-12T10:38:00.042Z,10.80
2023-02-12T10:40:36.650Z,10.70
2023-02-12T10:43:05.209Z,10.80
2023-02-12T10:45:37.985Z,10.90
2023-02-12T10:48:20.852Z,11.10
2023-02-12T10:54:35.149Z,11.10
2023-02-12T10:57:13.402Z,11.20
2023-02-12T10:59:42.832Z,11.30
2023-02-12T11:02:25.617Z,11.30
2023-02-12T11:04:55.527Z,11.40
2023-02-12T11:07:24.457Z,11.60
2023-02-12T11:09:53.837Z,11.60
2023-02-12T11:12:39.522Z,11.60
2023-02-12T11:15:27.151Z,11.40
2023-02-12T11:18:05.311Z,11.40
2023-02-12T11:20:48.994Z,11.40
2023-02-12T11:23:34.897Z,11.60
2023-02-12T11:26:19.556Z,11.70
2023-02-12T11:29:21.262Z,11.70
2023-02-12T11:35:40.777Z,11.70
2023-02-12T11:38:36.186Z,11.80
2023-02-12T11:41:28.229Z,11.70
2023-02-12T11:43:57.563Z,11.70
2023-02-12T11:46:27.831Z,11.80
2023-02-12T11:49:06.076Z,11.90
2023-02-12T11:51:43.129Z,11.90
2023-02-12T11:54:37.654Z,12.00
2023-02-12T11:57:09.225Z,12.20
2023-02-12T12:00:17.888Z,12.90
2023-02-12T12:09:07.440Z,14.60
2023-02-12T12:12:05.571Z,14.50
2023-02-12T12:18:14.668Z,13.40
2023-02-12T12:20:59.310Z,13.00
2023-02-12T12:23:36.064Z,12.80
2023-02-12T12:26:15.931Z,12.60
2023-02-12T12:28:50.500Z,12.50
2023-02-12T12:31:19.322Z,12.40
2023-02-12T12:34:13.920Z,12.40
2023-02-12T12:36:52.873Z,12.50
2023-02-12T12:39:35.023Z,12.60
2023-02-12T12:42:23.466Z,12.60
2023-02-12T12:45:45.058Z,12.70
2023-02-12T12:48:39.890Z,12.80
2023-02-12T12:51:28.420Z,12.80
2023-02-12T12:54:19.752Z,12.40
2023-02-12T12:57:02.416Z,12.30
2023-02-12T12:59:32.310Z,12.30
2023-02-12T13:02:59.794Z,12.20
2023-02-12T13:05:58.633Z,12.30
2023-02-12T13:08:39.660Z,13.20
2023-02-12T13:11:22.536Z,13.70
2023-02-12T13:13:52.122Z,13.90
2023-02-12T13:16:29.496Z,13.90
2023-02-12T13:19:18.318Z,13.80
2023-02-12T13:22:05.963Z,13.80
2023-02-12T13:24:36.187Z,13.60
2023-02-12T13:27:11.078Z,13.40
2023-02-12T13:29:52.812Z,13.40
2023-02-12T13:32:24.766Z,13.60
2023-02-12T13:34:53.291Z,14.00
2023-02-12T13:37:26.598Z,14.10
2023-02-12T13:39:55.452Z,14.00
2023-02-12T13:42:40.757Z,14.00
2023-02-12T13:45:49.796Z,14.00
2023-02-12T13:48:24.479Z,14.30
2023-02-12T13:51:02.499Z,15.10
2023-02-12T13:53:37.380Z,15.50
2023-02-12T13:56:14.795Z,15.60
2023-02-12T13:58:56.105Z,15.40
2023-02-12T14:01:52.407Z,15.20
2023-02-12T14:04:32.288Z,15.00
2023-02-12T14:07:10.111Z,15.00
2023-02-12T14:10:14.958Z,14.70
2023-02-12T14:12:43.356Z,14.40
2023-02-12T14:15:19.783Z,13.90
2023-02-12T14:18:20.213Z,13.60
2023-02-12T14:20:49.177Z,13.20
2023-02-12T14:23:30.448Z,12.90
2023-02-12T14:26:01.486Z,12.80
2023-02-12T14:28:52.416Z,12.50
2023-02-12T14:31:21.351Z,12.40
2023-02-12T14:36:51.774Z,12.20
2023-02-12T14:39:25.070Z,12.30
2023-02-12T14:42:01.414Z,12.40
2023-02-12T14:44:40.600Z,12.40
2023-02-12T14:47:41.206Z,12.50
2023-02-12T14:50:56.811Z,12.70
2023-02-12T14:53:30.747Z,12.70
2023-02-12T14:55:58.754Z,12.90
2023-02-12T14:58:26.970Z,12.90
2023-02-12T15:01:01.647Z,12.80
2023-02-12T15:03:50.816Z,12.70
2023-02-12T15:12:53.950Z,12.60
2023-02-12T15:15:38.757Z,12.40
2023-02-12T15:18:06.417Z,12.30
2023-02-12T15:23:48.833Z,12.20
2023-02-12T15:29:07.053Z,12.20
2023-02-12T15:31:35.520Z,12.10
2023-02-12T15:34:05.207Z,12.20
2023-02-12T15:36:44.888Z,12.20
2023-02-12T15:42:06.448Z,12.10
2023-02-12T15:47:17.487Z,12.00
2023-02-12T15:49:55.995Z,12.00
2023-02-12T15:52:36.320Z,12.00
2023-02-12T15:55:05.501Z,11.90
2023-02-12T15:57:32.802Z,11.80
2023-02-12T16:00:10.025Z,11.90
2023-02-12T16:02:37.214Z,11.90
2023-02-12T16:05:10.479Z,11.80
2023-02-12T16:07:38.509Z,11.80
2023-02-12T16:10:06.348Z,11.70
2023-02-12T16:12:37.113Z,11.70
2023-02-12T16:15:04.851Z,11.70
2023-02-12T16:17:37.622Z,11.70
2023-02-12T16:22:56.868Z,11.70
2023-02-12T16:25:32.198Z,11.60
2023-02-12T16:30:49.377Z,11.50
2023-02-12T16:33:51.138Z,11.40
2023-02-12T16:36:25.187Z,11.40
2023-02-12T16:38:59.395Z,11.30
2023-02-12T16:41:45.665Z,11.30
2023-02-12T16:44:37.613Z,11.30
2023-02-12T16:50:22.108Z,11.20
2023-02-12T17:01:41.333Z,11.00
2023-02-12T17:04:10.467Z,10.90
2023-02-12T17:07:02.218Z,10.80
2023-02-12T17:09:32.766Z,10.70
2023-02-12T17:12:01.868Z,10.50
2023-02-12T17:14:31.681Z,10.40
2023-02-12T17:17:02.966Z,10.30
2023-02-12T17:19:31.074Z,10.20
2023-02-12T17:22:07.791Z,10.10
2023-02-12T17:27:16.694Z,9.90
2023-02-12T17:30:00.972Z,9.90
2023-02-12T17:37:57.945Z,9.70
2023-02-12T17:43:09.159Z,9.70
2023-02-12T17:45:40.311Z,9.70
2023-02-12T17:48:08.901Z,9.60
2023-02-12T17:53:19.314Z,9.50
2023-02-12T17:56:18.205Z,9.30
2023-02-12T17:58:47.799Z,9.40
2023-02-12T18:01:16.993Z,9.40
2023-02-12T18:03:44.377Z,9.50
2023-02-12T18:06:14.347Z,9.50
2023-02-12T18:08:42.917Z,9.50
2023-02-12T18:11:10.998Z,9.60
2023-02-12T18:13:39.811Z,9.50
2023-02-12T18:16:08.268Z,9.50
2023-02-12T18:18:38.492Z,9.50
2023-02-12T18:21:10.142Z,9.50
2023-02-12T18:23:37.598Z,9.60
2023-02-12T18:26:31.919Z,9.60
2023-02-12T18:28:59.704Z,9.60
2023-02-12T18:31:28.479Z,9.70
2023-02-12T18:33:56.170Z,9.70
2023-02-12T18:36:26.858Z,9.70
2023-02-12T18:38:54.160Z,9.70
2023-02-12T18:41:25.997Z,9.70
2023-02-12T18:43:53.477Z,9.60
2023-02-12T18:46:22.882Z,9.60
2023-02-12T18:48:50.472Z,9.60
2023-02-12T18:51:21.359Z,9.50
2023-02-12T18:53:49.550Z,9.50
2023-02-12T18:56:16.843Z,9.50
2023-02-12T18:58:44.274Z,9.50
2023-02-12T19:01:16.177Z,9.40
2023-02-12T19:03:47.071Z,9.40
2023-02-12T19:06:14.537Z,9.30
2023-02-12T19:08:42.038Z,9.30
2023-02-12T19:11:10.434Z,9.30
2023-02-12T19:13:38.341Z,9.30
2023-02-12T19:16:14.365Z,9.30
2023-02-12T19:18:41.717Z,9.30
2023-02-12T19:21:13.524Z,9.10
2023-02-12T19:23:40.896Z,9.10
2023-02-12T19:26:10.048Z,9.10
2023-02-12T19:28:38.812Z,9.00
2023-02-12T19:31:15.443Z,8.90
2023-02-12T19:33:43.253Z,8.90
2023-02-12T19:36:11.718Z,8.90
2023-02-12T19:38:39.159Z,8.90
2023-02-12T19:41:14.679Z,8.80
2023-02-12T19:43:42.359Z,8.80
2023-02-12T19:46:12.849Z,8.80
2023-02-12T19:48:40.414Z,8.80
2023-02-12T19:51:10.263Z,8.70
2023-02-12T19:53:45.363Z,8.70
2023-02-12T19:56:12.816Z,8.80
2023-02-12T19:58:44.144Z,8.80
2023-02-12T20:01:34.760Z,8.90
2023-02-12T20:10:30.207Z,8.70
2023-02-12T20:12:58.313Z,8.60
2023-02-12T20:15:27.596Z,8.70
2023-02-12T20:17:55.770Z,8.70
2023-02-12T20:20:23.427Z,8.70
2023-02-12T20:22:51.697Z,8.60
2023-02-12T20:25:25.196Z,8.40
2023-02-12T20:27:57.877Z,8.20
2023-02-12T20:30:26.588Z,8.20
2023-02-12T20:41:11.663Z,8.40
2023-02-12T20:43:41.319Z,8.40
2023-02-12T20:46:24.936Z,8.40
2023-02-12T20:48:54.755Z,8.40
2023-02-12T20:51:29.159Z,8.50
2023-02-12T20:54:08.254Z,8.50
2023-02-12T20:59:20.654Z,8.50
2023-02-12T21:01:48.325Z,8.60
2023-02-12T21:04:17.809Z,8.60
2023-02-12T21:06:46.237Z,8.70
2023-02-12T21:09:17.146Z,8.70
2023-02-12T21:11:53.399Z,8.70
2023-02-12T21:14:23.153Z,8.60
2023-02-12T21:19:41.005Z,8.40
2023-02-12T21:22:11.413Z,8.40
2023-02-12T21:24:50.286Z,8.50
2023-02-12T21:27:26.503Z,8.50
2023-02-12T21:30:01.629Z,8.50
2023-02-12T21:32:39.294Z,8.60
2023-02-12T21:35:10.625Z,8.50
2023-02-12T21:37:39.777Z,8.50
2023-02-12T21:40:09.207Z,8.50
2023-02-12T21:45:22.967Z,8.30
2023-02-12T21:48:13.266Z,8.30
2023-02-12T21:50:47.318Z,8.30
2023-02-12T21:56:13.946Z,8.20
2023-02-12T22:20:43.141Z,8.00
2023-02-12T22:25:55.427Z,7.90
2023-02-12T22:28:35.326Z,8.00
2023-02-12T22:31:08.427Z,8.00
2023-02-12T22:33:37.628Z,8.10
2023-02-12T22:36:08.752Z,8.10
2023-02-12T22:38:39.364Z,7.80
2023-02-12T22:41:07.632Z,7.80
2023-02-12T22:43:38.414Z,7.80
2023-02-12T22:46:08.586Z,7.80
2023-02-12T22:48:37.031Z,7.90
2023-02-12T22:54:13.449Z,7.90
2023-02-12T22:56:41.809Z,7.90
2023-02-12T22:59:10.709Z,7.90
2023-02-12T23:01:40.497Z,7.90
2023-02-12T23:04:09.068Z,7.90
2023-02-12T23:06:39.173Z,7.90
2023-02-12T23:09:10.215Z,7.90
2023-02-12T23:11:39.875Z,7.90
2023-02-12T23:14:15.758Z,7.80
2023-02-12T23:17:03.826Z,7.70
2023-02-12T23:28:24.739Z,7.20
2023-02-12T23:31:32.810Z,7.10
2023-02-12T23:34:01.335Z,7.10
2023-02-12T23:36:30.854Z,7.10
2023-02-12T23:39:01.107Z,7.10
2023-02-12T23:41:29.089Z,7.00
2023-02-12T23:44:03.049Z,7.00
2023-02-12T23:46:32.003Z,7.00
2023-02-12T23:49:00.505Z,7.00
2023-02-12T23:51:30.794Z,7.00
2023-02-12T23:54:00.984Z,7.00
2023-02-12T23:56:32.734Z,7.00
2023-02-12T23:59:02.671Z,7.10
